createdAt,value
2018-08-09T00:01:01.596Z,997.39
2018-08-09T00:02:11.674Z,997.36
2018-08-09T00:03:21.774Z,997.38
2018-08-09T00:04:31.849Z,997.34
2018-08-09T00:05:41.927Z,997.32
2018-08-09T00:06:51.484Z,997.3
2018-08-09T00:08:01.566Z,997.37
2018-08-09T00:09:11.670Z,997.33
2018-08-09T00:10:21.799Z,997.38
2018-08-09T00:11:31.878Z,997.42
2018-08-09T00:12:41.973Z,997.44
2018-08-09T00:13:52.042Z,997.46
2018-08-09T00:15:01.863Z,997.47
2018-08-09T00:16:12.003Z,997.45
2018-08-09T00:17:21.816Z,997.41
2018-08-09T00:18:31.640Z,997.43
2018-08-09T00:19:41.726Z,997.45
2018-08-09T00:20:51.812Z,997.42
2018-08-09T00:22:01.955Z,997.43
2018-08-09T00:23:12.036Z,997.45
2018-08-09T00:24:22.119Z,997.46
2018-08-09T00:25:32.194Z,997.43
2018-08-09T00:26:42.018Z,997.48
2018-08-09T00:27:52.171Z,997.45
2018-08-09T00:29:02.263Z,997.47
2018-08-09T00:30:12.350Z,997.48
2018-08-09T00:31:22.431Z,997.44
2018-08-09T00:32:31.734Z,997.42
2018-08-09T00:33:41.822Z,997.46
2018-08-09T00:34:51.638Z,997.48
2018-08-09T00:36:01.486Z,997.47
2018-08-09T00:37:11.572Z,997.52
2018-08-09T00:38:21.667Z,997.52
2018-08-09T00:39:31.815Z,997.55
2018-08-09T00:40:41.624Z,997.53
2018-08-09T00:41:51.690Z,997.57
2018-08-09T00:43:01.511Z,997.54
2018-08-09T00:44:11.610Z,997.52
2018-08-09T00:45:21.435Z,997.51
2018-08-09T00:46:31.522Z,997.5
2018-08-09T00:47:41.613Z,997.5
2018-08-09T00:48:51.745Z,997.51
2018-08-09T00:50:01.820Z,997.51
2018-08-09T00:51:11.954Z,997.57
2018-08-09T00:52:22.070Z,997.55
2018-08-09T00:53:32.137Z,997.56
2018-08-09T00:54:42.225Z,997.58
2018-08-09T00:55:52.306Z,997.54
2018-08-09T00:57:02.397Z,997.54
2018-08-09T00:58:12.483Z,997.57
2018-08-09T00:59:22.553Z,997.59
2018-08-09T01:00:32.656Z,997.59
2018-08-09T01:01:42.478Z,997.59
2018-08-09T01:02:52.561Z,997.58
2018-08-09T01:04:02.672Z,997.56
2018-08-09T01:05:12.748Z,997.52
2018-08-09T01:06:22.822Z,997.52
2018-08-09T01:07:32.646Z,997.52
2018-08-09T01:08:42.726Z,997.49
2018-08-09T01:09:52.554Z,997.52
2018-08-09T01:11:02.645Z,997.47
2018-08-09T01:12:12.452Z,997.48
2018-08-09T01:13:22.532Z,997.5
2018-08-09T01:14:32.624Z,997.46
2018-08-09T01:15:42.468Z,997.47
2018-08-09T01:16:52.276Z,997.45
2018-08-09T01:18:02.092Z,997.46
2018-08-09T01:19:12.194Z,997.46
2018-08-09T01:20:22.338Z,997.4
2018-08-09T01:21:32.406Z,997.41
2018-08-09T01:22:42.480Z,997.45
2018-08-09T01:23:52.555Z,997.43
2018-08-09T01:25:02.382Z,997.49
2018-08-09T01:26:12.233Z,997.48
2018-08-09T01:27:22.043Z,997.49
2018-08-09T01:28:32.127Z,997.49
2018-08-09T01:29:42.203Z,997.49
2018-08-09T01:30:52.262Z,997.5
2018-08-09T01:32:02.387Z,997.45
2018-08-09T01:33:12.200Z,997.49
2018-08-09T01:34:21.763Z,997.46
2018-08-09T01:35:31.853Z,997.49
2018-08-09T01:36:41.952Z,997.48
2018-08-09T01:37:52.097Z,997.46
2018-08-09T01:39:02.200Z,997.49
2018-08-09T01:40:12.287Z,997.48
2018-08-09T01:41:22.364Z,997.53
2018-08-09T01:42:32.198Z,997.48
2018-08-09T01:43:42.283Z,997.48
2018-08-09T01:44:52.346Z,997.46
2018-08-09T01:46:02.170Z,997.48
2018-08-09T01:47:12.256Z,997.48
2018-08-09T01:48:22.078Z,997.47
2018-08-09T01:49:32.156Z,997.44
2018-08-09T01:50:41.706Z,997.47
2018-08-09T01:51:51.773Z,997.42
2018-08-09T01:53:01.870Z,997.46
2018-08-09T01:54:11.687Z,997.45
2018-08-09T01:55:21.770Z,997.44
2018-08-09T01:56:31.858Z,997.42
2018-08-09T01:57:41.949Z,997.4
2018-08-09T01:58:51.762Z,997.45
2018-08-09T02:00:01.581Z,997.42
2018-08-09T02:01:11.413Z,997.43
2018-08-09T02:02:21.488Z,997.4
2018-08-09T02:03:31.057Z,997.43
2018-08-09T02:04:40.936Z,997.43
2018-08-09T02:05:51.654Z,997.47
2018-08-09T02:07:01.748Z,997.48
2018-08-09T02:08:11.840Z,997.45
2018-08-09T02:09:21.923Z,997.43
2018-08-09T02:10:32.008Z,997.43
2018-08-09T02:11:42.091Z,997.37
2018-08-09T02:12:52.179Z,997.37
2018-08-09T02:14:02.243Z,997.37
2018-08-09T02:15:12.319Z,997.36
2018-08-09T02:16:22.400Z,997.35
2018-08-09T02:17:31.946Z,997.32
2018-08-09T02:18:42.018Z,997.33
2018-08-09T02:19:52.102Z,997.39
2018-08-09T02:21:02.233Z,997.38
2018-08-09T02:22:12.309Z,997.39
2018-08-09T02:23:22.184Z,997.41
2018-08-09T02:24:32.321Z,997.42
2018-08-09T02:25:42.130Z,997.43
2018-08-09T02:26:52.216Z,997.45
2018-08-09T02:28:02.300Z,997.45
2018-08-09T02:29:12.377Z,997.43
2018-08-09T02:30:22.185Z,997.42
2018-08-09T02:31:32.282Z,997.39
2018-08-09T02:32:42.100Z,997.4
2018-08-09T02:33:52.186Z,997.41
2018-08-09T02:35:02.262Z,997.37
2018-08-09T02:36:12.079Z,997.38
2018-08-09T02:37:22.178Z,997.39
2018-08-09T02:38:31.998Z,997.38
2018-08-09T02:39:42.078Z,997.39
2018-08-09T02:40:52.142Z,997.38
2018-08-09T02:42:02.221Z,997.39
2018-08-09T02:43:12.315Z,997.4
2018-08-09T02:44:22.400Z,997.36
2018-08-09T02:45:32.242Z,997.39
2018-08-09T02:46:42.412Z,997.38
2018-08-09T02:47:52.168Z,997.41
2018-08-09T02:49:01.982Z,997.42
2018-08-09T02:50:12.066Z,997.39
2018-08-09T02:51:22.171Z,997.42
2018-08-09T02:52:32.001Z,997.44
2018-08-09T02:53:41.820Z,997.4
2018-08-09T02:54:51.915Z,997.39
2018-08-09T02:56:02.079Z,997.39
2018-08-09T02:57:12.179Z,997.4
2018-08-09T02:58:22.255Z,997.37
2018-08-09T02:59:32.133Z,997.35
2018-08-09T03:00:42.246Z,997.35
2018-08-09T03:01:52.342Z,997.36
2018-08-09T03:35:02.968Z,997.55
2018-08-09T03:36:13.047Z,997.57
2018-08-09T03:37:23.121Z,997.6
2018-08-09T03:38:33.175Z,997.55
2018-08-09T03:39:43.262Z,997.56
2018-08-09T03:40:53.123Z,997.6
2018-08-09T03:42:03.197Z,997.59
2018-08-09T03:43:13.003Z,997.62
2018-08-09T03:44:22.826Z,997.62
2018-08-09T03:45:32.892Z,997.63
2018-08-09T03:46:42.958Z,997.65
2018-08-09T03:47:53.026Z,997.62
2018-08-09T03:49:02.829Z,997.64
2018-08-09T03:50:12.369Z,997.65
2018-08-09T03:51:22.442Z,997.69
2018-08-09T03:52:32.574Z,997.68
2018-08-09T03:53:42.657Z,997.67
2018-08-09T03:54:52.733Z,997.7
2018-08-09T03:56:02.545Z,997.76
2018-08-09T03:57:12.370Z,997.77
2018-08-09T03:58:22.561Z,997.79
2018-08-09T03:59:32.737Z,997.81
2018-08-09T04:00:42.823Z,997.79
2018-08-09T04:01:52.900Z,997.84
2018-08-09T04:03:02.721Z,997.83
2018-08-09T04:04:12.792Z,997.83
2018-08-09T04:05:22.894Z,997.86
2018-08-09T04:06:32.990Z,997.84
2018-08-09T04:07:43.045Z,997.86
2018-08-09T04:08:53.119Z,997.93
2018-08-09T04:10:03.240Z,997.88
2018-08-09T04:11:12.800Z,997.9
2018-08-09T04:12:22.871Z,997.91
2018-08-09T04:13:33.013Z,997.95
2018-08-09T04:14:43.284Z,997.93
2018-08-09T04:15:53.362Z,997.92
2018-08-09T04:17:02.922Z,997.93
2018-08-09T04:18:12.991Z,997.96
2018-08-09T04:19:22.859Z,997.93
2018-08-09T04:20:32.951Z,997.93
2018-08-09T04:21:43.018Z,997.98
2018-08-09T04:22:53.115Z,997.98
2018-08-09T04:24:03.177Z,998.02
2018-08-09T04:25:13.013Z,998.02
2018-08-09T04:26:22.826Z,998
2018-08-09T04:27:33.117Z,998.04
2018-08-09T04:28:43.175Z,998.03
2018-08-09T04:29:52.990Z,998.06
2018-08-09T04:31:02.803Z,998.04
2018-08-09T04:32:12.886Z,998.03
2018-08-09T04:33:23.212Z,998.05
2018-08-09T04:34:33.297Z,998.04
2018-08-09T04:35:43.369Z,998.11
2018-08-09T04:36:53.444Z,998.1
2018-08-09T04:38:03.657Z,998.11
2018-08-09T04:39:13.685Z,998.11
2018-08-09T04:40:23.800Z,998.1
2018-08-09T04:41:33.866Z,998.08
2018-08-09T04:42:43.954Z,998.06
2018-08-09T04:43:53.778Z,998.05
2018-08-09T04:45:03.855Z,998.04
2018-08-09T04:46:13.939Z,998.1
2018-08-09T04:47:23.503Z,998.1
2018-08-09T04:48:33.601Z,998.12
2018-08-09T04:49:43.688Z,998.11
2018-08-09T04:50:53.777Z,998.17
2018-08-09T04:52:03.608Z,998.25
2018-08-09T04:53:13.681Z,998.34
2018-08-09T04:54:23.515Z,998.52
2018-08-09T04:55:33.597Z,998.5
2018-08-09T04:56:43.405Z,998.43
2018-08-09T04:57:53.483Z,998.35
2018-08-09T04:59:03.489Z,998.25
2018-08-09T05:00:13.570Z,998.28
2018-08-09T05:01:23.666Z,998.3
2018-08-09T05:02:33.743Z,998.33
2018-08-09T05:03:43.822Z,998.35
2018-08-09T05:04:53.904Z,998.49
2018-08-09T05:06:03.712Z,998.79
2018-08-09T05:07:13.804Z,998.86
2018-08-09T05:08:23.883Z,998.84
2018-08-09T05:09:33.959Z,998.88
2018-08-09T05:10:44.105Z,998.9
2018-08-09T05:11:53.917Z,998.77
2018-08-09T05:13:04.005Z,998.76
2018-08-09T05:14:14.067Z,998.8
2018-08-09T05:15:23.864Z,998.83
2018-08-09T05:16:34.000Z,998.81
2018-08-09T05:17:44.091Z,998.71
2018-08-09T05:18:54.164Z,998.62
2018-08-09T05:20:04.233Z,998.62
2018-08-09T05:21:14.314Z,998.6
2018-08-09T05:22:24.393Z,998.73
2018-08-09T05:23:34.489Z,998.76
2018-08-09T05:24:44.309Z,998.88
2018-08-09T05:25:54.133Z,998.79
2018-08-09T05:27:03.954Z,998.82
2018-08-09T05:28:13.772Z,998.88
2018-08-09T05:29:23.581Z,998.81
2018-08-09T05:30:33.662Z,998.8
2018-08-09T05:31:43.733Z,998.76
2018-08-09T05:32:53.817Z,998.79
2018-08-09T05:34:03.698Z,998.83
2018-08-09T05:35:13.646Z,998.75
2018-08-09T05:36:23.743Z,998.73
2018-08-09T05:37:33.818Z,998.69
2018-08-09T05:38:43.927Z,998.71
2018-08-09T05:39:54.010Z,998.69
2018-08-09T05:41:04.095Z,998.66
2018-08-09T05:42:14.173Z,998.7
2018-08-09T05:43:24.261Z,998.69
2018-08-09T05:44:34.075Z,998.68
2018-08-09T05:45:44.158Z,998.67
2018-08-09T05:46:54.250Z,998.64
2018-08-09T05:48:04.356Z,998.62
2018-08-09T05:49:14.174Z,998.62
2018-08-09T05:50:24.255Z,998.57
2018-08-09T05:51:34.342Z,998.57
2018-08-09T05:52:44.515Z,998.54
2018-08-09T05:53:55.487Z,998.6
2018-08-09T05:55:05.570Z,998.61
2018-08-09T05:56:15.389Z,998.63
2018-08-09T05:57:25.459Z,998.64
2018-08-09T05:58:35.136Z,998.64
2018-08-09T05:59:45.384Z,998.63
2018-08-09T06:00:54.950Z,998.64
2018-08-09T06:02:05.021Z,998.63
2018-08-09T06:03:15.109Z,998.55
2018-08-09T06:04:24.922Z,998.44
2018-08-09T06:05:34.758Z,998.4
2018-08-09T06:06:44.808Z,998.42
2018-08-09T06:07:54.357Z,998.39
2018-08-09T06:09:04.437Z,998.45
2018-08-09T06:10:14.514Z,998.4
2018-08-09T06:11:24.590Z,998.44
2018-08-09T06:12:34.427Z,998.41
2018-08-09T06:13:44.255Z,998.44
2018-08-09T06:14:54.330Z,998.44
2018-08-09T06:16:04.421Z,998.42
2018-08-09T06:17:14.357Z,998.45
2018-08-09T06:18:24.454Z,998.49
2018-08-09T06:19:34.278Z,998.48
2018-08-09T06:20:44.083Z,998.49
2018-08-09T06:21:53.904Z,998.48
2018-08-09T06:23:03.988Z,998.51
2018-08-09T06:24:14.074Z,998.51
2018-08-09T06:25:24.145Z,998.54
2018-08-09T06:26:34.300Z,998.55
2018-08-09T06:27:44.772Z,998.58
2018-08-09T06:28:54.848Z,998.55
2018-08-09T06:30:04.946Z,998.54
2018-08-09T06:31:15.061Z,998.52
2018-08-09T06:32:25.135Z,998.53
2018-08-09T06:33:35.351Z,998.54
2018-08-09T06:34:45.481Z,998.53
2018-08-09T06:35:55.565Z,998.59
2018-08-09T06:37:05.653Z,998.57
2018-08-09T06:38:15.741Z,998.6
2018-08-09T06:39:25.836Z,998.6
2018-08-09T06:40:35.678Z,998.57
2018-08-09T06:41:45.771Z,998.58
2018-08-09T06:42:55.321Z,998.6
2018-08-09T06:44:05.154Z,998.65
2018-08-09T06:45:15.235Z,998.66
2018-08-09T06:46:24.783Z,998.63
2018-08-09T06:47:34.605Z,998.65
2018-08-09T06:48:45.118Z,998.6
2018-08-09T06:49:55.219Z,998.62
2018-08-09T06:51:05.297Z,998.63
2018-08-09T06:52:15.373Z,998.63
2018-08-09T06:53:25.466Z,998.62
2018-08-09T06:54:35.530Z,998.61
2018-08-09T06:55:45.363Z,998.61
2018-08-09T06:56:55.437Z,998.59
2018-08-09T06:58:05.506Z,998.62
2018-08-09T06:59:15.608Z,998.61
2018-08-09T07:00:25.431Z,998.65
2018-08-09T07:01:35.002Z,998.63
2018-08-09T07:02:45.132Z,998.62
2018-08-09T07:03:55.237Z,998.64
2018-08-09T07:05:05.308Z,998.64
2018-08-09T07:06:15.117Z,998.64
2018-08-09T07:07:25.204Z,998.6
2018-08-09T07:08:35.287Z,998.57
2018-08-09T07:09:45.371Z,998.58
2018-08-09T07:10:55.437Z,998.55
2018-08-09T07:12:05.534Z,998.55
2018-08-09T07:13:15.667Z,998.57
2018-08-09T07:14:25.752Z,998.6
2018-08-09T07:15:35.577Z,998.58
2018-08-09T07:16:45.385Z,998.57
2018-08-09T07:17:55.472Z,998.59
2018-08-09T07:19:05.036Z,998.63
2018-08-09T07:20:15.186Z,998.61
2018-08-09T07:21:25.209Z,998.67
2018-08-09T07:22:35.299Z,998.66
2018-08-09T07:23:45.102Z,998.63
2018-08-09T07:24:55.187Z,998.58
2018-08-09T07:26:04.753Z,998.57
2018-08-09T07:27:14.820Z,998.6
2018-08-09T07:28:24.895Z,998.59
2018-08-09T07:29:35.002Z,998.59
2018-08-09T07:30:45.083Z,998.58
2018-08-09T07:31:55.157Z,998.57
2018-08-09T07:33:05.265Z,998.58
2018-08-09T07:34:15.327Z,998.58
2018-08-09T07:35:25.399Z,998.54
2018-08-09T07:36:35.276Z,998.59
2018-08-09T07:37:45.532Z,998.57
2018-08-09T07:38:55.351Z,998.57
2018-08-09T07:40:05.452Z,998.62
2018-08-09T07:41:14.742Z,998.57
2018-08-09T07:42:24.868Z,998.57
2018-08-09T07:43:34.948Z,998.57
2018-08-09T07:44:45.023Z,998.55
2018-08-09T07:45:55.097Z,998.56
2018-08-09T07:47:04.915Z,998.54
2018-08-09T07:48:15.023Z,998.53
2018-08-09T07:49:25.213Z,998.59
2018-08-09T07:50:34.796Z,998.59
2018-08-09T07:51:44.924Z,998.64
2018-08-09T07:52:55.008Z,998.59
2018-08-09T07:54:04.583Z,998.55
2018-08-09T07:55:14.677Z,998.6
2018-08-09T07:56:24.783Z,998.56
2018-08-09T07:57:34.867Z,998.55
2018-08-09T07:58:44.960Z,998.59
2018-08-09T07:59:54.795Z,998.53
2018-08-09T08:01:04.672Z,998.56
2018-08-09T08:02:14.732Z,998.57
2018-08-09T08:03:24.553Z,998.57
2018-08-09T08:04:34.628Z,998.55
2018-08-09T08:05:44.475Z,998.55
2018-08-09T08:06:54.992Z,998.53
2018-08-09T08:08:05.078Z,998.51
2018-08-09T08:09:15.157Z,998.54
2018-08-09T08:10:25.250Z,998.51
2018-08-09T08:11:35.324Z,998.52
2018-08-09T08:12:45.399Z,998.51
2018-08-09T08:13:55.503Z,998.56
2018-08-09T08:15:05.726Z,998.53
2018-08-09T08:16:15.785Z,998.57
2018-08-09T08:17:25.991Z,998.59
2018-08-09T08:18:36.082Z,998.61
2018-08-09T08:19:46.161Z,998.61
2018-08-09T08:20:56.259Z,998.61
2018-08-09T08:22:06.411Z,998.65
2018-08-09T08:23:16.481Z,998.66
2018-08-09T08:24:26.572Z,998.62
2018-08-09T08:25:36.719Z,998.63
2018-08-09T08:26:46.841Z,998.6
2018-08-09T08:27:57.101Z,998.61
2018-08-09T08:29:07.213Z,998.61
2018-08-09T08:30:17.034Z,998.6
2018-08-09T08:31:27.159Z,998.56
2018-08-09T08:32:36.990Z,998.59
2018-08-09T08:33:47.092Z,998.58
2018-08-09T08:34:56.908Z,998.61
2018-08-09T08:36:06.995Z,998.59
2018-08-09T08:37:17.126Z,998.59
2018-08-09T08:38:27.227Z,998.59
2018-08-09T08:39:37.045Z,998.64
2018-08-09T08:40:46.861Z,998.63
2018-08-09T08:41:56.695Z,998.59
2018-08-09T08:43:06.788Z,998.64
2018-08-09T08:44:16.862Z,998.62
2018-08-09T08:45:26.435Z,998.62
2018-08-09T08:46:36.263Z,998.64
2018-08-09T08:47:46.085Z,998.61
2018-08-09T08:48:56.197Z,998.62
2018-08-09T08:50:06.025Z,998.61
2018-08-09T08:51:23.033Z,998.6
2018-08-09T08:52:33.125Z,998.6
2018-08-09T08:53:43.228Z,998.59
2018-08-09T08:54:53.320Z,998.57
2018-08-09T08:56:03.528Z,998.6
2018-08-09T08:57:13.619Z,998.6
2018-08-09T08:58:23.760Z,998.56
2018-08-09T08:59:33.856Z,998.58
2018-08-09T09:00:43.703Z,998.59
2018-08-09T09:01:54.036Z,998.57
2018-08-09T09:03:04.159Z,998.59
2018-08-09T09:04:14.176Z,998.55
2018-08-09T09:05:24.720Z,998.59
2018-08-09T09:06:34.828Z,998.56
2018-08-09T09:07:44.969Z,998.55
2018-08-09T09:08:55.055Z,998.52
2018-08-09T09:10:05.156Z,998.53
2018-08-09T09:11:14.984Z,998.53
2018-08-09T09:12:25.079Z,998.51
2018-08-09T09:13:34.907Z,998.52
2018-08-09T09:14:44.919Z,998.49
2018-08-09T09:15:54.738Z,998.49
2018-08-09T09:17:04.826Z,998.48
2018-08-09T09:18:14.447Z,998.44
2018-08-09T09:19:24.565Z,998.44
2018-08-09T09:20:34.662Z,998.45
2018-08-09T09:21:44.768Z,998.48
2018-08-09T09:22:54.856Z,998.5
2018-08-09T09:24:04.960Z,998.44
2018-08-09T09:25:15.072Z,998.41
2018-08-09T09:26:25.157Z,998.37
2018-08-09T09:27:35.265Z,998.34
2018-08-09T09:28:45.093Z,998.3
2018-08-09T09:29:55.239Z,998.3
2018-08-09T09:31:05.369Z,998.31
2018-08-09T09:32:15.456Z,998.28
2018-08-09T09:33:25.565Z,998.27
2018-08-09T09:34:35.391Z,998.21
2018-08-09T09:35:45.255Z,998.21
2018-08-09T09:36:55.364Z,998.23
2018-08-09T09:38:05.461Z,998.2
2018-08-09T09:39:15.275Z,998.22
2018-08-09T09:40:25.386Z,998.19
2018-08-09T09:41:35.276Z,998.22
2018-08-09T09:42:45.370Z,998.24
2018-08-09T09:43:55.457Z,998.24
2018-08-09T09:45:05.359Z,998.22
2018-08-09T09:46:14.927Z,998.23
2018-08-09T09:47:25.014Z,998.22
2018-08-09T09:48:35.130Z,998.26
2018-08-09T09:49:45.275Z,998.24
2018-08-09T09:50:55.613Z,998.22
2018-08-09T09:52:05.715Z,998.2
2018-08-09T09:53:15.275Z,998.24
2018-08-09T09:54:25.357Z,998.19
2018-08-09T09:55:35.447Z,998.13
2018-08-09T09:56:45.539Z,998.09
2018-08-09T09:57:55.653Z,998.06
2018-08-09T09:59:05.673Z,998.07
2018-08-09T10:00:15.752Z,998.06
2018-08-09T10:01:25.834Z,998.05
2018-08-09T10:02:35.943Z,998.04
2018-08-09T10:03:46.050Z,998.01
2018-08-09T10:04:56.145Z,997.99
2018-08-09T10:06:06.264Z,997.97
2018-08-09T10:07:16.467Z,997.92
2018-08-09T10:08:26.885Z,997.94
2018-08-09T10:09:37.010Z,997.91
2018-08-09T10:10:47.112Z,997.88
2018-08-09T10:11:56.941Z,997.91
2018-08-09T10:13:07.042Z,997.96
2018-08-09T10:14:17.134Z,997.95
2018-08-09T10:15:27.238Z,997.91
2018-08-09T10:16:37.345Z,997.89
2018-08-09T10:17:47.437Z,997.86
2018-08-09T10:18:57.518Z,997.86
2018-08-09T10:20:07.600Z,997.85
2018-08-09T10:21:17.689Z,997.85
2018-08-09T10:22:27.938Z,997.78
2018-08-09T10:23:38.043Z,997.8
2018-08-09T10:24:47.859Z,997.75
2018-08-09T10:25:57.977Z,997.76
2018-08-09T10:27:08.114Z,997.74
2018-08-09T10:28:18.208Z,997.77
2018-08-09T10:29:28.298Z,997.81
2018-08-09T10:30:38.376Z,997.75
2018-08-09T10:31:48.474Z,997.75
2018-08-09T10:32:58.592Z,997.73
2018-08-09T10:34:08.688Z,997.71
2018-08-09T10:35:18.778Z,997.67
2018-08-09T10:36:28.466Z,997.7
2018-08-09T10:37:38.560Z,997.68
2018-08-09T10:38:48.659Z,997.69
2018-08-09T10:39:58.474Z,997.69
2018-08-09T10:41:08.571Z,997.69
2018-08-09T10:42:18.391Z,997.65
2018-08-09T10:43:28.454Z,997.72
2018-08-09T10:44:38.540Z,997.66
2018-08-09T10:45:48.686Z,997.64
2018-08-09T10:46:58.772Z,997.62
2018-08-09T10:48:08.621Z,997.57
2018-08-09T10:49:18.718Z,997.55
2018-08-09T10:50:28.805Z,997.48
2018-08-09T10:51:38.911Z,997.53
2018-08-09T10:52:48.762Z,997.51
2018-08-09T10:53:58.866Z,997.48
2018-08-09T10:55:08.966Z,997.55
2018-08-09T10:56:19.078Z,997.5
2018-08-09T10:57:29.224Z,997.49
2018-08-09T10:58:39.321Z,997.48
2018-08-09T10:59:49.409Z,997.49
2018-08-09T11:00:59.232Z,997.46
2018-08-09T11:02:09.053Z,997.49
2018-08-09T11:03:18.888Z,997.43
2018-08-09T11:04:28.986Z,997.4
2018-08-09T11:05:38.575Z,997.37
2018-08-09T11:06:48.660Z,997.36
2018-08-09T11:07:58.755Z,997.37
2018-08-09T11:09:08.570Z,997.38
2018-08-09T11:10:18.413Z,997.36
2018-08-09T11:11:28.238Z,997.35
2018-08-09T11:12:38.313Z,997.37
2018-08-09T11:13:48.152Z,997.29
2018-08-09T11:14:58.300Z,997.27
2018-08-09T11:16:08.637Z,997.3
2018-08-09T11:17:18.743Z,997.25
2018-08-09T11:18:28.943Z,997.24
2018-08-09T11:19:38.783Z,997.14
2018-08-09T11:20:48.606Z,997.13
2018-08-09T11:21:58.447Z,997.2
2018-08-09T11:23:08.299Z,997.22
2018-08-09T11:24:18.394Z,997.19
2018-08-09T11:25:28.501Z,997.18
2018-08-09T11:26:38.586Z,997.17
2018-08-09T11:27:48.421Z,997.17
2018-08-09T11:28:58.526Z,997.16
2018-08-09T11:30:08.591Z,997.1
2018-08-09T11:31:18.665Z,997.17
2018-08-09T11:32:28.813Z,997.19
2018-08-09T11:33:38.375Z,997.13
2018-08-09T11:34:48.465Z,997.12
2018-08-09T11:35:58.554Z,997.06
2018-08-09T11:37:08.631Z,997.11
2018-08-09T11:38:18.515Z,997.11
2018-08-09T11:39:28.617Z,997.07
2018-08-09T11:40:38.445Z,997.03
2018-08-09T11:41:48.540Z,997.1
2018-08-09T11:42:58.655Z,996.97
2018-08-09T11:44:08.775Z,997.02
2018-08-09T11:45:18.877Z,996.98
2018-08-09T11:46:28.985Z,996.98
2018-08-09T11:47:39.065Z,996.95
2018-08-09T11:48:49.121Z,996.99
2018-08-09T11:49:59.203Z,996.98
2018-08-09T11:51:09.023Z,996.89
2018-08-09T11:52:19.108Z,996.9
2018-08-09T11:53:29.199Z,996.93
2018-08-09T11:54:39.012Z,996.9
2018-08-09T11:55:49.123Z,996.92
2018-08-09T11:56:59.265Z,996.91
2018-08-09T11:58:09.755Z,996.91
2018-08-09T11:59:19.866Z,996.9
2018-08-09T12:00:29.975Z,996.82
2018-08-09T12:01:39.977Z,996.75
2018-08-09T12:02:50.370Z,996.77
2018-08-09T12:04:00.465Z,996.82
2018-08-09T12:05:10.556Z,996.77
2018-08-09T12:06:20.649Z,996.77
2018-08-09T12:07:30.758Z,996.79
2018-08-09T12:08:40.852Z,996.77
2018-08-09T12:09:50.946Z,996.8
2018-08-09T12:11:01.093Z,996.71
2018-08-09T12:12:11.197Z,996.73
2018-08-09T12:13:21.316Z,996.71
2018-08-09T12:14:31.630Z,996.65
2018-08-09T12:15:41.476Z,996.62
2018-08-09T12:16:51.581Z,996.65
2018-08-09T12:18:01.689Z,996.66
2018-08-09T12:19:11.802Z,996.68
2018-08-09T12:20:21.889Z,996.65
2018-08-09T12:21:31.980Z,996.6
2018-08-09T12:22:42.072Z,996.56
2018-08-09T12:23:51.896Z,996.6
2018-08-09T12:25:01.979Z,996.57
2018-08-09T12:26:11.304Z,996.53
2018-08-09T12:27:20.876Z,996.52
2018-08-09T12:28:30.941Z,996.55
2018-08-09T12:29:40.783Z,996.56
2018-08-09T12:30:50.899Z,996.51
2018-08-09T12:32:01.003Z,996.56
2018-08-09T12:33:11.127Z,996.55
2018-08-09T12:34:20.918Z,996.63
2018-08-09T12:35:30.737Z,996.54
2018-08-09T12:36:40.566Z,996.44
2018-08-09T12:37:50.974Z,996.38
2018-08-09T12:39:01.080Z,996.44
2018-08-09T12:40:11.173Z,996.47
2018-08-09T12:41:21.265Z,996.43
2018-08-09T12:42:31.082Z,996.41
2018-08-09T12:43:40.906Z,996.33
2018-08-09T12:44:50.992Z,996.31
2018-08-09T12:46:00.838Z,996.24
2018-08-09T12:47:10.912Z,996.29
2018-08-09T12:48:21.009Z,996.3
2018-08-09T12:49:31.121Z,996.33
2018-08-09T12:50:41.287Z,996.33
2018-08-09T12:51:51.738Z,996.32
2018-08-09T12:53:01.828Z,996.23
2018-08-09T12:54:11.913Z,996.29
2018-08-09T12:55:21.754Z,996.24
2018-08-09T12:56:31.868Z,996.21
2018-08-09T12:57:41.969Z,996.16
2018-08-09T12:58:52.071Z,996.07
2018-08-09T13:00:02.193Z,996.15
2018-08-09T13:01:13.106Z,996.2
2018-08-09T13:02:23.209Z,996.1
2018-08-09T13:03:33.312Z,996.16
2018-08-09T13:04:43.420Z,996.09
2018-08-09T13:05:53.291Z,996.17
2018-08-09T13:07:03.453Z,996.07
2018-08-09T13:08:13.546Z,996.19
2018-08-09T13:09:23.846Z,996.16
2018-08-09T13:10:33.952Z,996.14
2018-08-09T13:11:44.065Z,996.11
2018-08-09T13:12:54.172Z,996.08
2018-08-09T13:14:04.262Z,996.12
2018-08-09T13:15:13.851Z,996.13
2018-08-09T13:16:23.671Z,996.12
2018-08-09T13:17:33.500Z,996.08
2018-08-09T13:18:43.579Z,996.03
2018-08-09T13:19:53.691Z,995.96
2018-08-09T13:21:03.254Z,996.04
2018-08-09T13:22:13.360Z,996.02
2018-08-09T13:23:23.674Z,996.01
2018-08-09T13:24:33.819Z,995.94
2018-08-09T13:25:43.657Z,995.99
2018-08-09T13:26:53.740Z,995.96
2018-08-09T13:28:03.837Z,995.95
2018-08-09T13:29:13.644Z,996.02
2018-08-09T13:30:23.726Z,995.96
2018-08-09T13:31:33.874Z,995.92
2018-08-09T13:32:43.955Z,995.97
2018-08-09T13:33:54.039Z,995.91
2018-08-09T13:35:04.126Z,995.91
2018-08-09T13:36:14.261Z,995.85
2018-08-09T13:37:24.333Z,995.88
2018-08-09T13:38:34.155Z,995.84
2018-08-09T13:39:44.236Z,995.88
2018-08-09T13:40:54.323Z,995.85
2018-08-09T13:42:04.131Z,995.84
2018-08-09T13:43:14.248Z,995.79
2018-08-09T13:44:24.343Z,995.78
2018-08-09T13:45:34.443Z,995.78
2018-08-09T13:46:44.573Z,995.77
2018-08-09T13:47:54.685Z,995.76
2018-08-09T13:49:04.800Z,995.7
2018-08-09T13:50:14.914Z,995.7
2018-08-09T13:51:25.066Z,995.62
2018-08-09T13:52:35.468Z,995.69
2018-08-09T13:53:45.751Z,995.62
2018-08-09T13:54:55.849Z,995.68
2018-08-09T13:56:05.947Z,995.62
2018-08-09T13:57:16.051Z,995.69
2018-08-09T13:58:25.902Z,995.62
2018-08-09T13:59:36.334Z,995.66
2018-08-09T14:00:46.438Z,995.62
2018-08-09T14:01:56.288Z,995.6
2018-08-09T14:03:06.125Z,995.6
2018-08-09T14:04:16.233Z,995.59
2018-08-09T14:05:26.319Z,995.52
2018-08-09T14:06:36.169Z,995.51
2018-08-09T14:07:46.273Z,995.49
2018-08-09T14:08:56.381Z,995.51
2018-08-09T14:10:06.471Z,995.48
2018-08-09T14:11:16.311Z,995.47
2018-08-09T14:12:26.388Z,995.46
2018-08-09T14:13:36.260Z,995.5
2018-08-09T14:14:46.369Z,995.48
2018-08-09T14:15:56.458Z,995.51
2018-08-09T14:17:06.093Z,995.42
2018-08-09T14:18:15.924Z,995.41
2018-08-09T14:19:25.514Z,995.38
2018-08-09T14:20:35.621Z,995.39
2018-08-09T14:21:45.719Z,995.32
2018-08-09T14:22:55.831Z,995.3
2018-08-09T14:24:05.662Z,995.32
2018-08-09T14:25:15.811Z,995.39
2018-08-09T14:26:25.641Z,995.47
2018-08-09T14:27:35.740Z,995.42
2018-08-09T14:28:45.825Z,995.37
2018-08-09T14:29:55.926Z,995.41
2018-08-09T14:31:06.025Z,995.38
2018-08-09T14:32:16.137Z,995.32
2018-08-09T14:33:26.245Z,995.3
2018-08-09T14:34:36.077Z,995.34
2018-08-09T14:35:46.174Z,995.43
2018-08-09T14:36:56.277Z,995.43
2018-08-09T14:38:06.390Z,995.47
2018-08-09T14:39:16.275Z,995.38
2018-08-09T14:40:26.114Z,995.38
2018-08-09T14:41:36.218Z,995.43
2018-08-09T14:42:46.356Z,995.41
2018-08-09T14:43:55.671Z,995.42
2018-08-09T14:45:05.756Z,995.39
2018-08-09T14:46:15.843Z,995.39
2018-08-09T14:47:25.665Z,995.45
2018-08-09T14:48:35.809Z,995.38
2018-08-09T14:49:45.808Z,995.44
2018-08-09T14:50:55.929Z,995.44
2018-08-09T14:52:06.034Z,995.37
2018-08-09T14:53:16.123Z,995.39
2018-08-09T14:54:26.233Z,995.33
2018-08-09T14:55:36.328Z,995.31
2018-08-09T14:56:46.426Z,995.38
2018-08-09T14:57:56.528Z,995.31
2018-08-09T14:59:06.638Z,995.29
2018-08-09T15:00:16.767Z,995.34
2018-08-09T15:01:26.858Z,995.33
2018-08-09T15:02:36.997Z,995.3
2018-08-09T15:03:47.085Z,995.3
2018-08-09T15:04:57.179Z,995.34
2018-08-09T15:06:07.296Z,995.37
2018-08-09T15:07:17.118Z,995.41
2018-08-09T15:08:27.201Z,995.42